sensor_id;sensor_type;location;lat;lon;timestamp;temperature;humidity
11840;DHT22;5979;50.800;4.904;2023-05-18T00:01:40;9.60;99.90
11840;DHT22;5979;50.800;4.904;2023-05-18T00:04:06;9.50;99.90
11840;DHT22;5979;50.800;4.904;2023-05-18T00:06:32;9.50;99.90
11840;DHT22;5979;50.800;4.904;2023-05-18T00:08:58;9.60;99.90
11840;DHT22;5979;50.800;4.904;2023-05-18T00:11:24;9.50;99.90
11840;DHT22;5979;50.800;4.904;2023-05-18T00:13:50;9.50;99.90
11840;DHT22;5979;50.800;4.904;2023-05-18T00:16:16;9.50;99.90
11840;DHT22;5979;50.800;4.904;2023-05-18T00:18:41;9.50;99.90
11840;DHT22;5979;50.800;4.904;2023-05-18T00:21:09;9.50;99.90
11840;DHT22;5979;50.800;4.904;2023-05-18T00:23:35;9.50;99.90
11840;DHT22;5979;50.800;4.904;2023-05-18T00:26:03;9.50;99.90
11840;DHT22;5979;50.800;4.904;2023-05-18T00:28:29;9.40;99.90
11840;DHT22;5979;50.800;4.904;2023-05-18T00:30:55;9.40;99.90
11840;DHT22;5979;50.800;4.904;2023-05-18T00:33:21;9.40;99.90
11840;DHT22;5979;50.800;4.904;2023-05-18T00:35:47;9.40;99.90
11840;DHT22;5979;50.800;4.904;2023-05-18T00:38:13;9.40;99.90
11840;DHT22;5979;50.800;4.904;2023-05-18T00:40:42;9.30;99.90
11840;DHT22;5979;50.800;4.904;2023-05-18T00:43:08;9.30;99.90
11840;DHT22;5979;50.800;4.904;2023-05-18T00:45:34;9.30;99.90
11840;DHT22;5979;50.800;4.904;2023-05-18T00:47:59;9.20;99.90
11840;DHT22;5979;50.800;4.904;2023-05-18T00:50:25;9.20;99.90
11840;DHT22;5979;50.800;4.904;2023-05-18T00:52:51;9.10;99.90
11840;DHT22;5979;50.800;4.904;2023-05-18T00:55:17;9.10;99.90
11840;DHT22;5979;50.800;4.904;2023-05-18T00:57:43;9.00;99.90
11840;DHT22;5979;50.800;4.904;2023-05-18T01:00:11;8.90;99.90
11840;DHT22;5979;50.800;4.904;2023-05-18T01:02:39;8.90;99.90
11840;DHT22;5979;50.800;4.904;2023-05-18T01:05:11;8.90;99.90
11840;DHT22;5979;50.800;4.904;2023-05-18T01:07:40;8.80;99.90
11840;DHT22;5979;50.800;4.904;2023-05-18T01:10:10;8.80;99.90
11840;DHT22;5979;50.800;4.904;2023-05-18T01:15:13;8.80;99.90
11840;DHT22;5979;50.800;4.904;2023-05-18T01:18:10;8.90;99.90
11840;DHT22;5979;50.800;4.904;2023-05-18T01:20:46;8.90;99.90
11840;DHT22;5979;50.800;4.904;2023-05-18T01:26:13;8.90;99.90
11840;DHT22;5979;50.800;4.904;2023-05-18T01:28:40;8.90;99.90
11840;DHT22;5979;50.800;4.904;2023-05-18T01:31:08;8.80;99.90
11840;DHT22;5979;50.800;4.904;2023-05-18T01:33:34;8.80;99.90
11840;DHT22;5979;50.800;4.904;2023-05-18T01:36:00;8.80;99.90
11840;DHT22;5979;50.800;4.904;2023-05-18T01:38:27;8.90;99.90
11840;DHT22;5979;50.800;4.904;2023-05-18T01:43:31;8.80;99.90
11840;DHT22;5979;50.800;4.904;2023-05-18T01:48:57;8.80;99.90
11840;DHT22;5979;50.800;4.904;2023-05-18T01:51:28;8.70;99.90
11840;DHT22;5979;50.800;4.904;2023-05-18T01:54:01;8.70;99.90
11840;DHT22;5979;50.800;4.904;2023-05-18T01:56:28;8.60;99.90
11840;DHT22;5979;50.800;4.904;2023-05-18T01:58:56;8.60;99.90
11840;DHT22;5979;50.800;4.904;2023-05-18T02:01:22;8.60;99.90
11840;DHT22;5979;50.800;4.904;2023-05-18T02:03:49;8.60;99.90
11840;DHT22;5979;50.800;4.904;2023-05-18T02:06:15;8.60;99.90
11840;DHT22;5979;50.800;4.904;2023-05-18T02:08:40;8.60;99.90
11840;DHT22;5979;50.800;4.904;2023-05-18T02:11:06;8.60;99.90
11840;DHT22;5979;50.800;4.904;2023-05-18T02:13:32;8.60;99.90
11840;DHT22;5979;50.800;4.904;2023-05-18T02:15:57;8.50;99.90
11840;DHT22;5979;50.800;4.904;2023-05-18T02:18:23;8.60;99.90
11840;DHT22;5979;50.800;4.904;2023-05-18T02:20:57;8.60;99.90
11840;DHT22;5979;50.800;4.904;2023-05-18T02:23:24;8.60;99.90
11840;DHT22;5979;50.800;4.904;2023-05-18T02:25:50;8.60;99.90
11840;DHT22;5979;50.800;4.904;2023-05-18T02:28:16;8.60;99.90
11840;DHT22;5979;50.800;4.904;2023-05-18T02:30:41;8.50;99.90
11840;DHT22;5979;50.800;4.904;2023-05-18T02:33:07;8.50;99.90
11840;DHT22;5979;50.800;4.904;2023-05-18T02:35:34;8.50;99.90
11840;DHT22;5979;50.800;4.904;2023-05-18T02:38:00;8.50;99.90
11840;DHT22;5979;50.800;4.904;2023-05-18T02:40:27;8.50;99.90
11840;DHT22;5979;50.800;4.904;2023-05-18T02:42:52;8.40;99.90
11840;DHT22;5979;50.800;4.904;2023-05-18T02:45:18;8.40;99.90
11840;DHT22;5979;50.800;4.904;2023-05-18T02:47:45;8.30;99.90
11840;DHT22;5979;50.800;4.904;2023-05-18T02:50:11;8.20;99.90
11840;DHT22;5979;50.800;4.904;2023-05-18T02:52:37;8.10;99.90
11840;DHT22;5979;50.800;4.904;2023-05-18T02:55:04;8.00;99.90
11840;DHT22;5979;50.800;4.904;2023-05-18T02:57:30;7.90;99.90
11840;DHT22;5979;50.800;4.904;2023-05-18T02:59:57;8.00;99.90
11840;DHT22;5979;50.800;4.904;2023-05-18T03:02:23;7.90;99.90
11840;DHT22;5979;50.800;4.904;2023-05-18T03:04:50;7.80;99.90
11840;DHT22;5979;50.800;4.904;2023-05-18T03:07:19;7.80;99.90
11840;DHT22;5979;50.800;4.904;2023-05-18T03:09:45;7.70;99.90
11840;DHT22;5979;50.800;4.904;2023-05-18T03:12:11;7.70;99.90
11840;DHT22;5979;50.800;4.904;2023-05-18T03:14:37;7.70;99.90
11840;DHT22;5979;50.800;4.904;2023-05-18T03:17:03;7.70;99.90
11840;DHT22;5979;50.800;4.904;2023-05-18T03:19:30;7.60;99.90
11840;DHT22;5979;50.800;4.904;2023-05-18T03:21:56;7.60;99.90
11840;DHT22;5979;50.800;4.904;2023-05-18T03:24:22;7.60;99.90
11840;DHT22;5979;50.800;4.904;2023-05-18T03:26:51;7.70;99.90
11840;DHT22;5979;50.800;4.904;2023-05-18T03:29:19;7.70;99.90
11840;DHT22;5979;50.800;4.904;2023-05-18T03:31:45;7.70;99.90
11840;DHT22;5979;50.800;4.904;2023-05-18T03:34:11;7.80;99.90
11840;DHT22;5979;50.800;4.904;2023-05-18T03:36:37;7.70;99.90
11840;DHT22;5979;50.800;4.904;2023-05-18T03:39:03;7.70;99.90
11840;DHT22;5979;50.800;4.904;2023-05-18T03:41:30;7.70;99.90
11840;DHT22;5979;50.800;4.904;2023-05-18T03:43:56;7.70;99.90
11840;DHT22;5979;50.800;4.904;2023-05-18T03:46:22;7.70;99.90
11840;DHT22;5979;50.800;4.904;2023-05-18T03:48:48;7.70;99.90
11840;DHT22;5979;50.800;4.904;2023-05-18T03:51:14;7.70;99.90
11840;DHT22;5979;50.800;4.904;2023-05-18T03:53:40;7.60;99.90
11840;DHT22;5979;50.800;4.904;2023-05-18T03:56:06;7.60;99.90
11840;DHT22;5979;50.800;4.904;2023-05-18T03:58:32;7.70;99.90
11840;DHT22;5979;50.800;4.904;2023-05-18T04:00:59;7.70;99.90
11840;DHT22;5979;50.800;4.904;2023-05-18T04:03:25;7.80;99.90
11840;DHT22;5979;50.800;4.904;2023-05-18T04:05:52;7.80;99.90
11840;DHT22;5979;50.800;4.904;2023-05-18T04:08:18;7.80;99.90
11840;DHT22;5979;50.800;4.904;2023-05-18T04:10:44;7.80;99.90
11840;DHT22;5979;50.800;4.904;2023-05-18T04:13:10;7.80;99.90
11840;DHT22;5979;50.800;4.904;2023-05-18T04:15:36;7.80;99.90
11840;DHT22;5979;50.800;4.904;2023-05-18T04:18:02;7.80;99.90
11840;DHT22;5979;50.800;4.904;2023-05-18T04:20:28;7.80;99.90
11840;DHT22;5979;50.800;4.904;2023-05-18T04:22:55;7.70;99.90
11840;DHT22;5979;50.800;4.904;2023-05-18T04:25:22;7.70;99.90
11840;DHT22;5979;50.800;4.904;2023-05-18T04:27:57;7.70;99.90
11840;DHT22;5979;50.800;4.904;2023-05-18T04:30:27;7.80;99.90
11840;DHT22;5979;50.800;4.904;2023-05-18T04:32:54;7.90;99.90
11840;DHT22;5979;50.800;4.904;2023-05-18T04:35:22;7.90;99.90
11840;DHT22;5979;50.800;4.904;2023-05-18T04:37:50;8.00;99.90
11840;DHT22;5979;50.800;4.904;2023-05-18T04:40:16;8.10;99.90
11840;DHT22;5979;50.800;4.904;2023-05-18T04:42:42;8.10;99.90
11840;DHT22;5979;50.800;4.904;2023-05-18T04:45:16;8.20;99.90
11840;DHT22;5979;50.800;4.904;2023-05-18T04:47:44;8.30;99.90
11840;DHT22;5979;50.800;4.904;2023-05-18T04:50:15;8.40;99.90
11840;DHT22;5979;50.800;4.904;2023-05-18T04:52:42;8.50;99.90
11840;DHT22;5979;50.800;4.904;2023-05-18T04:55:13;8.50;99.90
11840;DHT22;5979;50.800;4.904;2023-05-18T04:57:39;8.50;99.90
11840;DHT22;5979;50.800;4.904;2023-05-18T05:00:06;8.60;99.90
11840;DHT22;5979;50.800;4.904;2023-05-18T05:02:34;8.70;99.90
11840;DHT22;5979;50.800;4.904;2023-05-18T05:05:00;8.80;99.90
11840;DHT22;5979;50.800;4.904;2023-05-18T05:07:25;9.10;99.90
11840;DHT22;5979;50.800;4.904;2023-05-18T05:09:51;9.30;99.90
11840;DHT22;5979;50.800;4.904;2023-05-18T05:12:17;9.50;99.90
11840;DHT22;5979;50.800;4.904;2023-05-18T05:14:42;9.50;99.90
11840;DHT22;5979;50.800;4.904;2023-05-18T05:17:08;9.70;99.90
11840;DHT22;5979;50.800;4.904;2023-05-18T05:19:33;9.80;99.90
11840;DHT22;5979;50.800;4.904;2023-05-18T05:21:59;9.80;99.90
11840;DHT22;5979;50.800;4.904;2023-05-18T05:24:25;9.80;99.90
11840;DHT22;5979;50.800;4.904;2023-05-18T05:26:50;10.00;99.90
11840;DHT22;5979;50.800;4.904;2023-05-18T05:29:16;10.20;99.90
11840;DHT22;5979;50.800;4.904;2023-05-18T05:31:41;10.20;99.90
11840;DHT22;5979;50.800;4.904;2023-05-18T05:34:07;10.20;99.90
11840;DHT22;5979;50.800;4.904;2023-05-18T05:36:33;10.50;99.90
11840;DHT22;5979;50.800;4.904;2023-05-18T05:38:58;10.80;99.90
11840;DHT22;5979;50.800;4.904;2023-05-18T05:41:24;11.30;99.90
11840;DHT22;5979;50.800;4.904;2023-05-18T05:43:50;11.90;99.90
11840;DHT22;5979;50.800;4.904;2023-05-18T05:46:16;12.30;99.90
11840;DHT22;5979;50.800;4.904;2023-05-18T05:48:42;12.90;99.90
11840;DHT22;5979;50.800;4.904;2023-05-18T05:51:07;13.20;99.90
11840;DHT22;5979;50.800;4.904;2023-05-18T05:53:33;13.30;99.90
11840;DHT22;5979;50.800;4.904;2023-05-18T05:55:59;13.40;99.90
11840;DHT22;5979;50.800;4.904;2023-05-18T05:58:24;13.70;99.90
11840;DHT22;5979;50.800;4.904;2023-05-18T06:00:50;13.80;99.90
11840;DHT22;5979;50.800;4.904;2023-05-18T06:03:15;13.40;99.90
11840;DHT22;5979;50.800;4.904;2023-05-18T06:05:41;13.20;99.90
11840;DHT22;5979;50.800;4.904;2023-05-18T06:08:07;13.10;99.90
11840;DHT22;5979;50.800;4.904;2023-05-18T06:10:33;13.20;99.90
11840;DHT22;5979;50.800;4.904;2023-05-18T06:12:59;13.10;99.90
11840;DHT22;5979;50.800;4.904;2023-05-18T06:15:25;12.90;99.90
11840;DHT22;5979;50.800;4.904;2023-05-18T06:17:50;12.80;99.90
11840;DHT22;5979;50.800;4.904;2023-05-18T06:20:16;12.50;99.90
11840;DHT22;5979;50.800;4.904;2023-05-18T06:22:41;12.40;99.90
11840;DHT22;5979;50.800;4.904;2023-05-18T06:25:08;12.50;99.90
11840;DHT22;5979;50.800;4.904;2023-05-18T06:27:35;12.60;99.90
11840;DHT22;5979;50.800;4.904;2023-05-18T06:30:00;12.70;99.90
11840;DHT22;5979;50.800;4.904;2023-05-18T06:32:26;13.00;99.90
11840;DHT22;5979;50.800;4.904;2023-05-18T06:34:52;13.30;99.90
11840;DHT22;5979;50.800;4.904;2023-05-18T06:37:17;13.40;99.90
11840;DHT22;5979;50.800;4.904;2023-05-18T06:39:44;13.20;99.90
11840;DHT22;5979;50.800;4.904;2023-05-18T06:42:10;13.30;99.90
11840;DHT22;5979;50.800;4.904;2023-05-18T06:44:36;13.40;99.90
11840;DHT22;5979;50.800;4.904;2023-05-18T06:47:01;13.30;99.90
11840;DHT22;5979;50.800;4.904;2023-05-18T06:49:27;13.20;99.90
11840;DHT22;5979;50.800;4.904;2023-05-18T06:51:52;13.20;99.90
11840;DHT22;5979;50.800;4.904;2023-05-18T06:54:18;13.40;99.90
11840;DHT22;5979;50.800;4.904;2023-05-18T06:56:44;13.50;99.90
11840;DHT22;5979;50.800;4.904;2023-05-18T06:59:10;13.50;99.90
11840;DHT22;5979;50.800;4.904;2023-05-18T07:01:36;13.50;99.90
11840;DHT22;5979;50.800;4.904;2023-05-18T07:04:02;13.60;99.90
11840;DHT22;5979;50.800;4.904;2023-05-18T07:06:28;13.50;99.90
11840;DHT22;5979;50.800;4.904;2023-05-18T07:08:54;13.60;99.90
11840;DHT22;5979;50.800;4.904;2023-05-18T07:11:20;13.50;99.90
11840;DHT22;5979;50.800;4.904;2023-05-18T07:13:46;13.50;99.90
11840;DHT22;5979;50.800;4.904;2023-05-18T07:16:12;13.60;99.90
11840;DHT22;5979;50.800;4.904;2023-05-18T07:18:37;13.50;99.90
11840;DHT22;5979;50.800;4.904;2023-05-18T07:21:03;13.60;99.90
11840;DHT22;5979;50.800;4.904;2023-05-18T07:23:29;13.60;99.90
11840;DHT22;5979;50.800;4.904;2023-05-18T07:25:56;13.70;99.90
11840;DHT22;5979;50.800;4.904;2023-05-18T07:28:21;14.10;99.90
11840;DHT22;5979;50.800;4.904;2023-05-18T07:30:47;14.20;99.90
11840;DHT22;5979;50.800;4.904;2023-05-18T07:33:13;14.10;99.90
11840;DHT22;5979;50.800;4.904;2023-05-18T07:35:38;14.20;99.90
11840;DHT22;5979;50.800;4.904;2023-05-18T07:38:04;14.40;99.90
11840;DHT22;5979;50.800;4.904;2023-05-18T07:40:30;14.40;99.90
11840;DHT22;5979;50.800;4.904;2023-05-18T07:42:55;14.00;99.90
11840;DHT22;5979;50.800;4.904;2023-05-18T07:45:21;14.30;99.90
11840;DHT22;5979;50.800;4.904;2023-05-18T07:47:48;14.30;99.90
11840;DHT22;5979;50.800;4.904;2023-05-18T07:50:14;14.40;99.90
11840;DHT22;5979;50.800;4.904;2023-05-18T07:52:39;14.60;99.90
11840;DHT22;5979;50.800;4.904;2023-05-18T07:55:05;14.60;99.90
11840;DHT22;5979;50.800;4.904;2023-05-18T07:57:32;14.60;99.90
11840;DHT22;5979;50.800;4.904;2023-05-18T07:59:58;14.80;99.90
11840;DHT22;5979;50.800;4.904;2023-05-18T08:02:24;14.70;99.90
11840;DHT22;5979;50.800;4.904;2023-05-18T08:04:50;14.80;99.90
11840;DHT22;5979;50.800;4.904;2023-05-18T08:07:16;14.70;99.90
11840;DHT22;5979;50.800;4.904;2023-05-18T08:09:42;14.70;99.90
11840;DHT22;5979;50.800;4.904;2023-05-18T08:12:09;14.70;99.90
11840;DHT22;5979;50.800;4.904;2023-05-18T08:14:34;14.70;99.90
11840;DHT22;5979;50.800;4.904;2023-05-18T08:17:02;14.90;99.90
11840;DHT22;5979;50.800;4.904;2023-05-18T08:19:28;14.90;99.90
11840;DHT22;5979;50.800;4.904;2023-05-18T08:21:54;15.00;99.90
11840;DHT22;5979;50.800;4.904;2023-05-18T08:24:20;15.30;99.90
11840;DHT22;5979;50.800;4.904;2023-05-18T08:26:46;15.60;99.90
11840;DHT22;5979;50.800;4.904;2023-05-18T08:29:11;15.80;99.90
11840;DHT22;5979;50.800;4.904;2023-05-18T08:31:39;16.10;99.90
11840;DHT22;5979;50.800;4.904;2023-05-18T08:34:05;16.00;99.90
11840;DHT22;5979;50.800;4.904;2023-05-18T08:36:32;16.00;99.90
11840;DHT22;5979;50.800;4.904;2023-05-18T08:38:58;15.30;99.90
11840;DHT22;5979;50.800;4.904;2023-05-18T08:41:31;15.20;99.90
11840;DHT22;5979;50.800;4.904;2023-05-18T08:44:18;15.30;99.90
11840;DHT22;5979;50.800;4.904;2023-05-18T08:46:45;15.20;99.90
11840;DHT22;5979;50.800;4.904;2023-05-18T08:49:17;15.10;99.90
11840;DHT22;5979;50.800;4.904;2023-05-18T08:51:45;15.10;99.90
11840;DHT22;5979;50.800;4.904;2023-05-18T08:54:19;15.20;99.90
11840;DHT22;5979;50.800;4.904;2023-05-18T08:56:45;15.40;99.90
11840;DHT22;5979;50.800;4.904;2023-05-18T08:59:14;15.60;99.90
11840;DHT22;5979;50.800;4.904;2023-05-18T09:01:41;15.60;99.90
11840;DHT22;5979;50.800;4.904;2023-05-18T09:04:08;15.50;99.90
11840;DHT22;5979;50.800;4.904;2023-05-18T09:06:34;15.30;99.90
11840;DHT22;5979;50.800;4.904;2023-05-18T09:09:00;15.20;99.90
11840;DHT22;5979;50.800;4.904;2023-05-18T09:11:31;15.20;99.90
11840;DHT22;5979;50.800;4.904;2023-05-18T09:14:00;15.30;99.90
11840;DHT22;5979;50.800;4.904;2023-05-18T09:16:27;15.60;99.90
11840;DHT22;5979;50.800;4.904;2023-05-18T09:18:53;15.70;99.90
11840;DHT22;5979;50.800;4.904;2023-05-18T09:21:19;15.70;99.90
11840;DHT22;5979;50.800;4.904;2023-05-18T09:23:45;15.50;99.90
11840;DHT22;5979;50.800;4.904;2023-05-18T09:26:11;15.50;99.90
11840;DHT22;5979;50.800;4.904;2023-05-18T09:28:42;15.80;99.90
11840;DHT22;5979;50.800;4.904;2023-05-18T09:31:16;16.00;99.90
11840;DHT22;5979;50.800;4.904;2023-05-18T09:33:42;15.90;99.90
11840;DHT22;5979;50.800;4.904;2023-05-18T09:36:09;15.80;99.90
11840;DHT22;5979;50.800;4.904;2023-05-18T09:38:41;16.00;99.90
11840;DHT22;5979;50.800;4.904;2023-05-18T09:41:11;16.00;99.90
11840;DHT22;5979;50.800;4.904;2023-05-18T09:43:38;15.90;99.90
11840;DHT22;5979;50.800;4.904;2023-05-18T09:46:08;15.90;99.90
11840;DHT22;5979;50.800;4.904;2023-05-18T09:48:50;16.00;99.90
11840;DHT22;5979;50.800;4.904;2023-05-18T09:51:15;15.60;99.90
11840;DHT22;5979;50.800;4.904;2023-05-18T09:53:53;15.80;99.90
11840;DHT22;5979;50.800;4.904;2023-05-18T09:56:22;15.80;99.90
11840;DHT22;5979;50.800;4.904;2023-05-18T09:58:48;16.00;99.90
11840;DHT22;5979;50.800;4.904;2023-05-18T10:01:14;16.00;99.90
11840;DHT22;5979;50.800;4.904;2023-05-18T10:03:40;16.10;99.90
11840;DHT22;5979;50.800;4.904;2023-05-18T10:06:10;16.00;99.90
11840;DHT22;5979;50.800;4.904;2023-05-18T10:08:39;16.20;99.90
11840;DHT22;5979;50.800;4.904;2023-05-18T10:11:05;16.40;99.90
11840;DHT22;5979;50.800;4.904;2023-05-18T10:13:32;16.70;99.90
11840;DHT22;5979;50.800;4.904;2023-05-18T10:16:00;16.90;99.90
11840;DHT22;5979;50.800;4.904;2023-05-18T10:18:28;16.70;99.90
11840;DHT22;5979;50.800;4.904;2023-05-18T10:20:56;16.70;99.90
11840;DHT22;5979;50.800;4.904;2023-05-18T10:23:23;16.60;99.90
11840;DHT22;5979;50.800;4.904;2023-05-18T10:25:50;16.70;99.90
11840;DHT22;5979;50.800;4.904;2023-05-18T10:28:20;17.00;99.90
11840;DHT22;5979;50.800;4.904;2023-05-18T10:30:52;16.90;99.90
11840;DHT22;5979;50.800;4.904;2023-05-18T10:33:21;17.10;99.90
11840;DHT22;5979;50.800;4.904;2023-05-18T10:35:48;16.90;99.90
11840;DHT22;5979;50.800;4.904;2023-05-18T10:38:22;16.80;99.90
11840;DHT22;5979;50.800;4.904;2023-05-18T10:40:56;16.80;99.90
11840;DHT22;5979;50.800;4.904;2023-05-18T10:43:23;16.40;99.90
11840;DHT22;5979;50.800;4.904;2023-05-18T10:45:54;16.50;99.90
11840;DHT22;5979;50.800;4.904;2023-05-18T10:48:22;16.80;99.90
11840;DHT22;5979;50.800;4.904;2023-05-18T10:50:49;16.70;99.90
11840;DHT22;5979;50.800;4.904;2023-05-18T10:53:19;16.70;99.90
11840;DHT22;5979;50.800;4.904;2023-05-18T10:55:50;16.80;99.90
11840;DHT22;5979;50.800;4.904;2023-05-18T10:58:18;16.70;99.90
11840;DHT22;5979;50.800;4.904;2023-05-18T11:00:48;16.90;99.90
11840;DHT22;5979;50.800;4.904;2023-05-18T11:03:16;17.20;99.90
11840;DHT22;5979;50.800;4.904;2023-05-18T11:05:43;17.10;99.90
11840;DHT22;5979;50.800;4.904;2023-05-18T11:08:12;17.10;99.90
11840;DHT22;5979;50.800;4.904;2023-05-18T11:11:02;17.00;99.90
11840;DHT22;5979;50.800;4.904;2023-05-18T11:13:32;17.20;99.90
11840;DHT22;5979;50.800;4.904;2023-05-18T11:21:19;17.50;99.90
11840;DHT22;5979;50.800;4.904;2023-05-18T11:24:18;17.60;99.90
11840;DHT22;5979;50.800;4.904;2023-05-18T11:29:19;17.70;99.90
11840;DHT22;5979;50.800;4.904;2023-05-18T11:31:52;17.90;99.90
11840;DHT22;5979;50.800;4.904;2023-05-18T11:34:44;17.80;99.90
11840;DHT22;5979;50.800;4.904;2023-05-18T11:37:14;17.70;99.90
11840;DHT22;5979;50.800;4.904;2023-05-18T11:39:40;17.60;99.90
11840;DHT22;5979;50.800;4.904;2023-05-18T11:42:09;17.50;99.90
11840;DHT22;5979;50.800;4.904;2023-05-18T11:44:35;17.50;99.90
11840;DHT22;5979;50.800;4.904;2023-05-18T11:47:07;17.10;99.90
11840;DHT22;5979;50.800;4.904;2023-05-18T11:49:44;17.20;99.90
11840;DHT22;5979;50.800;4.904;2023-05-18T11:52:20;17.40;99.90
11840;DHT22;5979;50.800;4.904;2023-05-18T11:54:57;17.40;99.90
11840;DHT22;5979;50.800;4.904;2023-05-18T11:57:25;17.60;99.90
11840;DHT22;5979;50.800;4.904;2023-05-18T11:59:57;17.70;99.90
11840;DHT22;5979;50.800;4.904;2023-05-18T12:02:25;17.40;99.90
11840;DHT22;5979;50.800;4.904;2023-05-18T12:04:53;17.50;99.90
11840;DHT22;5979;50.800;4.904;2023-05-18T12:07:20;17.50;99.90
11840;DHT22;5979;50.800;4.904;2023-05-18T12:09:47;17.30;99.90
11840;DHT22;5979;50.800;4.904;2023-05-18T12:12:15;17.40;99.90
11840;DHT22;5979;50.800;4.904;2023-05-18T12:15:02;17.40;99.90
11840;DHT22;5979;50.800;4.904;2023-05-18T12:20:06;17.70;99.90
11840;DHT22;5979;50.800;4.904;2023-05-18T12:22:32;17.70;99.90
11840;DHT22;5979;50.800;4.904;2023-05-18T12:24:58;17.60;99.90
11840;DHT22;5979;50.800;4.904;2023-05-18T12:27:23;17.60;99.90
11840;DHT22;5979;50.800;4.904;2023-05-18T12:29:51;17.40;99.90
11840;DHT22;5979;50.800;4.904;2023-05-18T12:32:17;17.40;99.90
11840;DHT22;5979;50.800;4.904;2023-05-18T12:34:43;17.50;99.90
11840;DHT22;5979;50.800;4.904;2023-05-18T12:37:09;17.30;99.90
11840;DHT22;5979;50.800;4.904;2023-05-18T12:39:35;16.80;99.90
11840;DHT22;5979;50.800;4.904;2023-05-18T12:42:09;16.90;99.90
11840;DHT22;5979;50.800;4.904;2023-05-18T12:44:35;16.90;99.90
11840;DHT22;5979;50.800;4.904;2023-05-18T12:47:01;16.90;99.90
11840;DHT22;5979;50.800;4.904;2023-05-18T12:49:27;17.10;99.90
11840;DHT22;5979;50.800;4.904;2023-05-18T12:51:55;17.10;99.90
11840;DHT22;5979;50.800;4.904;2023-05-18T12:54:28;17.00;99.90
11840;DHT22;5979;50.800;4.904;2023-05-18T12:56:54;16.90;99.90
11840;DHT22;5979;50.800;4.904;2023-05-18T12:59:25;16.80;99.90
11840;DHT22;5979;50.800;4.904;2023-05-18T13:01:54;16.60;99.90
11840;DHT22;5979;50.800;4.904;2023-05-18T13:04:21;16.70;99.90
11840;DHT22;5979;50.800;4.904;2023-05-18T13:06:47;16.70;99.90
11840;DHT22;5979;50.800;4.904;2023-05-18T13:09:14;16.60;99.90
11840;DHT22;5979;50.800;4.904;2023-05-18T13:11:44;16.50;99.90
11840;DHT22;5979;50.800;4.904;2023-05-18T13:14:10;16.70;99.90
11840;DHT22;5979;50.800;4.904;2023-05-18T13:16:38;16.70;99.90
11840;DHT22;5979;50.800;4.904;2023-05-18T13:19:08;16.70;99.90
11840;DHT22;5979;50.800;4.904;2023-05-18T13:21:35;16.80;99.90
11840;DHT22;5979;50.800;4.904;2023-05-18T13:24:01;16.60;99.90
11840;DHT22;5979;50.800;4.904;2023-05-18T13:26:27;16.70;99.90
11840;DHT22;5979;50.800;4.904;2023-05-18T13:28:54;16.80;99.90
11840;DHT22;5979;50.800;4.904;2023-05-18T13:31:21;17.00;99.90
11840;DHT22;5979;50.800;4.904;2023-05-18T13:33:47;16.90;99.90
11840;DHT22;5979;50.800;4.904;2023-05-18T13:36:13;16.90;99.90
11840;DHT22;5979;50.800;4.904;2023-05-18T13:38:39;16.80;99.90
11840;DHT22;5979;50.800;4.904;2023-05-18T13:41:06;16.90;99.90
11840;DHT22;5979;50.800;4.904;2023-05-18T13:43:32;17.00;99.90
11840;DHT22;5979;50.800;4.904;2023-05-18T13:45:58;17.00;99.90
11840;DHT22;5979;50.800;4.904;2023-05-18T13:48:24;17.10;99.90
11840;DHT22;5979;50.800;4.904;2023-05-18T13:50:52;17.10;99.90
11840;DHT22;5979;50.800;4.904;2023-05-18T13:53:18;17.10;99.90
11840;DHT22;5979;50.800;4.904;2023-05-18T13:55:43;17.20;99.90
11840;DHT22;5979;50.800;4.904;2023-05-18T13:58:09;17.30;99.90
11840;DHT22;5979;50.800;4.904;2023-05-18T14:00:35;17.30;99.90
11840;DHT22;5979;50.800;4.904;2023-05-18T14:03:01;17.20;99.90
11840;DHT22;5979;50.800;4.904;2023-05-18T14:05:27;17.30;99.90
11840;DHT22;5979;50.800;4.904;2023-05-18T14:07:53;17.40;99.90
11840;DHT22;5979;50.800;4.904;2023-05-18T14:10:19;17.50;99.90
11840;DHT22;5979;50.800;4.904;2023-05-18T14:12:45;17.60;99.90
11840;DHT22;5979;50.800;4.904;2023-05-18T14:15:12;17.50;99.90
11840;DHT22;5979;50.800;4.904;2023-05-18T14:17:38;17.50;99.90
11840;DHT22;5979;50.800;4.904;2023-05-18T14:20:04;17.40;99.90
11840;DHT22;5979;50.800;4.904;2023-05-18T14:22:30;17.30;99.90
11840;DHT22;5979;50.800;4.904;2023-05-18T14:24:56;17.20;99.90
11840;DHT22;5979;50.800;4.904;2023-05-18T14:27:22;17.40;99.90
11840;DHT22;5979;50.800;4.904;2023-05-18T14:29:48;17.30;99.90
11840;DHT22;5979;50.800;4.904;2023-05-18T14:32:15;17.30;99.90
11840;DHT22;5979;50.800;4.904;2023-05-18T14:34:41;17.10;99.90
11840;DHT22;5979;50.800;4.904;2023-05-18T14:37:07;17.20;99.90
11840;DHT22;5979;50.800;4.904;2023-05-18T14:39:33;17.20;99.90
11840;DHT22;5979;50.800;4.904;2023-05-18T14:41:58;17.30;99.90
11840;DHT22;5979;50.800;4.904;2023-05-18T14:44:24;17.30;99.90
11840;DHT22;5979;50.800;4.904;2023-05-18T14:46:51;17.20;99.90
11840;DHT22;5979;50.800;4.904;2023-05-18T14:49:16;17.20;99.90
11840;DHT22;5979;50.800;4.904;2023-05-18T14:51:42;17.20;99.90
11840;DHT22;5979;50.800;4.904;2023-05-18T14:54:08;17.20;99.90
11840;DHT22;5979;50.800;4.904;2023-05-18T14:56:34;17.20;99.90
11840;DHT22;5979;50.800;4.904;2023-05-18T14:59:00;17.20;99.90
11840;DHT22;5979;50.800;4.904;2023-05-18T15:01:25;17.20;99.90
11840;DHT22;5979;50.800;4.904;2023-05-18T15:03:51;17.20;99.90
11840;DHT22;5979;50.800;4.904;2023-05-18T15:06:17;17.20;99.90
11840;DHT22;5979;50.800;4.904;2023-05-18T15:08:42;17.10;99.90
11840;DHT22;5979;50.800;4.904;2023-05-18T15:11:09;17.10;99.90
11840;DHT22;5979;50.800;4.904;2023-05-18T15:13:35;16.90;99.90
11840;DHT22;5979;50.800;4.904;2023-05-18T15:16:01;16.70;99.90
11840;DHT22;5979;50.800;4.904;2023-05-18T15:18:27;16.70;99.90
11840;DHT22;5979;50.800;4.904;2023-05-18T15:20:52;16.40;99.90
11840;DHT22;5979;50.800;4.904;2023-05-18T15:23:18;16.40;99.90
11840;DHT22;5979;50.800;4.904;2023-05-18T15:25:44;16.50;99.90
11840;DHT22;5979;50.800;4.904;2023-05-18T15:28:09;16.40;99.90
11840;DHT22;5979;50.800;4.904;2023-05-18T15:30:35;16.60;99.90
11840;DHT22;5979;50.800;4.904;2023-05-18T15:33:01;16.50;99.90
11840;DHT22;5979;50.800;4.904;2023-05-18T15:35:27;16.60;99.90
11840;DHT22;5979;50.800;4.904;2023-05-18T15:37:54;16.70;99.90
11840;DHT22;5979;50.800;4.904;2023-05-18T15:40:20;16.60;99.90
11840;DHT22;5979;50.800;4.904;2023-05-18T15:42:45;16.70;99.90
11840;DHT22;5979;50.800;4.904;2023-05-18T15:45:11;16.70;99.90
11840;DHT22;5979;50.800;4.904;2023-05-18T15:47:37;16.70;99.90
11840;DHT22;5979;50.800;4.904;2023-05-18T15:50:03;16.70;99.90
11840;DHT22;5979;50.800;4.904;2023-05-18T15:52:29;16.60;99.90
11840;DHT22;5979;50.800;4.904;2023-05-18T15:54:55;16.40;99.90
11840;DHT22;5979;50.800;4.904;2023-05-18T15:57:20;16.50;99.90
11840;DHT22;5979;50.800;4.904;2023-05-18T15:59:49;16.50;99.90
11840;DHT22;5979;50.800;4.904;2023-05-18T16:02:15;16.50;99.90
11840;DHT22;5979;50.800;4.904;2023-05-18T16:04:41;16.50;99.90
11840;DHT22;5979;50.800;4.904;2023-05-18T16:07:07;16.60;99.90
11840;DHT22;5979;50.800;4.904;2023-05-18T16:09:32;16.70;99.90
11840;DHT22;5979;50.800;4.904;2023-05-18T16:11:58;16.80;99.90
11840;DHT22;5979;50.800;4.904;2023-05-18T16:14:24;16.80;99.90